Photometre #852[NE_1.6_Dp] Portglenone_MO AOT

File : 20200924_852.hum

24/09/2020,07:18:47,TEMP=8.5,BA=5.52,STAT.A,ExtBa=12.70
24/09/2020,07:20:19,TEMP=8.8,BA=5.32,STAT.b=10.0
24/09/2020,07:23:20,TEMP=8.7,BA=5.32,STAT.A,ExtBa=12.60
24/09/2020,07:24:52,TEMP=9.0,BA=5.32,STAT.b=10.0
24/09/2020,07:28:40,TEMP=8.9,BA=5.32,STAT.A,ExtBa=12.50
24/09/2020,07:30:12,TEMP=9.2,BA=5.36,STAT.b=10.0
24/09/2020,07:35:09,TEMP=9.1,BA=5.36,STAT.A,ExtBa=12.50
24/09/2020,07:36:41,TEMP=9.5,BA=5.36,STAT.b=10.0
24/09/2020,07:42:44,TEMP=9.4,BA=5.52,STAT.A,ExtBa=12.50
24/09/2020,07:44:16,TEMP=9.7,BA=5.52,STAT.b=10.0
24/09/2020,07:52:18,TEMP=9.6,BA=5.52,STAT.A,ExtBa=12.50
24/09/2020,07:53:50,TEMP=9.9,BA=5.52,STAT.b=10.0
24/09/2020,08:04:30,TEMP=9.8,BA=5.52,STAT.B,ExtBa=12.50
24/09/2020,08:06:02,TEMP=10.1,BA=5.52,STAT.b=10.0
24/09/2020,08:10:23,TEMP=10.0,BA=5.52,STAT.A,ExtBa=12.50
24/09/2020,08:11:55,TEMP=10.3,BA=5.52,STAT.b=10.0
24/09/2020,08:17:02,TEMP=10.1,BA=5.52,STAT.A,ExtBa=12.50
24/09/2020,08:18:34,TEMP=10.4,BA=5.52,STAT.b=10.0
24/09/2020,08:24:36,TEMP=10.3,BA=5.52,STAT.A,ExtBa=12.60
24/09/2020,08:26:09,TEMP=10.6,BA=5.52,STAT.b=10.0
24/09/2020,08:33:17,TEMP=10.5,BA=5.56,STAT.A,ExtBa=12.70
24/09/2020,08:34:50,TEMP=10.8,BA=5.56,STAT.b=10.0
24/09/2020,08:43:24,TEMP=10.7,BA=5.56,STAT.C,ExtBa=12.70
24/09/2020,08:44:56,TEMP=11.0,BA=5.56,STAT.b=11.0
24/09/2020,08:55:24,TEMP=10.8,BA=5.52,STAT.A,ExtBa=12.80
24/09/2020,08:56:57,TEMP=11.1,BA=5.52,STAT.b=11.0
24/09/2020,09:09:54,TEMP=11.1,BA=5.56,STAT.A,ExtBa=13.10
24/09/2020,09:11:27,TEMP=11.4,BA=5.52,STAT.b=11.0
24/09/2020,09:18:23,TEMP=11.4,BA=5.52,STAT.F,ExtBa=13.40
24/09/2020,09:19:55,TEMP=11.8,BA=5.52,STAT.b=11.0
24/09/2020,09:33:22,TEMP=12.4,BA=5.56,STAT.D,ExtBa=13.90
24/09/2020,09:34:54,TEMP=12.8,BA=5.56,STAT.b=11.0
24/09/2020,09:48:22,TEMP=12.9,BA=5.60,STAT.D,ExtBa=14.20
24/09/2020,09:49:54,TEMP=13.3,BA=5.60,STAT.b=11.0
24/09/2020,10:03:22,TEMP=12.6,BA=5.56,STAT.D,ExtBa=13.80
24/09/2020,10:04:55,TEMP=12.9,BA=5.56,STAT.b=11.0
24/09/2020,10:18:24,TEMP=12.2,BA=5.56,STAT.F,ExtBa=14.00
24/09/2020,10:19:56,TEMP=12.6,BA=5.56,STAT.b=11.0
24/09/2020,10:33:15,TEMP=12.6,BA=5.52,STAT.b=11.0
24/09/2020,10:48:12,TEMP=12.5,BA=5.56,STAT.D,ExtBa=14.30
24/09/2020,10:49:44,TEMP=13.1,BA=5.56,STAT.b=11.0
24/09/2020,11:03:22,TEMP=13.2,BA=5.56,STAT.D,ExtBa=14.00
24/09/2020,11:04:53,TEMP=13.5,BA=5.56,STAT.b=11.0
24/09/2020,11:18:24,TEMP=12.3,BA=5.52,STAT.F,ExtBa=13.70
24/09/2020,11:19:55,TEMP=12.5,BA=5.52,STAT.b=11.0
24/09/2020,11:33:23,TEMP=11.6,BA=5.52,STAT.D,ExtBa=13.60
24/09/2020,11:34:54,TEMP=11.9,BA=5.52,STAT.b=11.0
24/09/2020,11:48:23,TEMP=11.3,BA=5.52,STAT.D,ExtBa=13.50
24/09/2020,11:49:54,TEMP=11.6,BA=5.52,STAT.b=11.0
24/09/2020,12:03:23,TEMP=11.2,BA=5.52,STAT.D,ExtBa=13.50
24/09/2020,12:04:53,TEMP=11.5,BA=5.52,STAT.b=11.0
24/09/2020,12:18:25,TEMP=11.3,BA=5.52,STAT.F,ExtBa=13.60
24/09/2020,12:19:55,TEMP=11.6,BA=5.52,STAT.b=11.0
24/09/2020,12:33:23,TEMP=11.7,BA=5.52,STAT.D,ExtBa=13.80
24/09/2020,12:34:53,TEMP=12.0,BA=5.52,STAT.b=11.0
24/09/2020,12:48:23,TEMP=12.2,BA=5.56,STAT.D,ExtBa=13.90
24/09/2020,12:49:54,TEMP=12.6,BA=5.56,STAT.b=11.0
24/09/2020,13:03:23,TEMP=12.9,BA=5.56,STAT.D,ExtBa=14.00
24/09/2020,13:04:54,TEMP=13.3,BA=5.56,STAT.b=11.0
24/09/2020,13:18:25,TEMP=13.3,BA=5.56,STAT.F,ExtBa=14.10
24/09/2020,13:19:56,TEMP=13.7,BA=5.56,STAT.b=11.0
24/09/2020,13:33:23,TEMP=14.0,BA=5.56,STAT.D,ExtBa=14.00
24/09/2020,13:34:54,TEMP=14.3,BA=5.56,STAT.b=11.0
24/09/2020,13:48:23,TEMP=14.4,BA=5.56,STAT.D,ExtBa=14.00
24/09/2020,13:49:55,TEMP=14.8,BA=5.56,STAT.b=11.0
24/09/2020,14:03:23,TEMP=14.4,BA=5.52,STAT.D,ExtBa=13.90
24/09/2020,14:04:54,TEMP=14.8,BA=5.52,STAT.b=11.0
24/09/2020,14:18:25,TEMP=14.7,BA=5.56,STAT.F,ExtBa=14.00
24/09/2020,14:19:57,TEMP=15.0,BA=5.56,STAT.b=11.0
24/09/2020,14:33:16,TEMP=15.0,BA=5.52,STAT.b=11.0
24/09/2020,14:48:12,TEMP=14.4,BA=5.52,STAT.D,ExtBa=14.10
24/09/2020,14:49:45,TEMP=14.8,BA=5.52,STAT.b=11.0
24/09/2020,15:03:22,TEMP=14.4,BA=5.56,STAT.D,ExtBa=14.20
24/09/2020,15:04:54,TEMP=14.8,BA=5.56,STAT.b=11.0
24/09/2020,15:18:25,TEMP=15.0,BA=5.56,STAT.F,ExtBa=14.00
24/09/2020,15:19:57,TEMP=15.2,BA=5.56,STAT.b=11.0
24/09/2020,15:26:53,TEMP=14.5,BA=5.52,STAT.A,ExtBa=13.90
24/09/2020,15:28:25,TEMP=14.7,BA=5.52,STAT.b=11.0
24/09/2020,15:41:23,TEMP=13.6,BA=5.52,STAT.A,ExtBa=13.70
24/09/2020,15:42:55,TEMP=13.8,BA=5.52,STAT.b=11.0
24/09/2020,15:53:23,TEMP=13.0,BA=5.52,STAT.C,ExtBa=13.90
24/09/2020,15:54:55,TEMP=13.4,BA=5.52,STAT.b=11.0
24/09/2020,16:03:30,TEMP=13.3,BA=5.52,STAT.A,ExtBa=13.90
24/09/2020,16:05:02,TEMP=13.7,BA=5.52,STAT.b=11.0
24/09/2020,16:12:11,TEMP=13.4,BA=5.52,STAT.A,ExtBa=13.70
24/09/2020,16:13:43,TEMP=13.6,BA=5.52,STAT.b=11.0
24/09/2020,16:19:45,TEMP=13.0,BA=5.52,STAT.A,ExtBa=13.60
24/09/2020,16:21:17,TEMP=13.2,BA=5.52,STAT.b=11.0
24/09/2020,16:26:24,TEMP=13.0,BA=5.52,STAT.A,ExtBa=13.70
24/09/2020,16:27:56,TEMP=13.4,BA=5.52,STAT.b=11.0
24/09/2020,16:32:17,TEMP=13.6,BA=5.52,STAT.B,ExtBa=13.80
24/09/2020,16:33:49,TEMP=14.0,BA=5.52,STAT.b=11.0
24/09/2020,16:44:28,TEMP=13.9,BA=5.52,STAT.A,ExtBa=13.70
24/09/2020,16:46:01,TEMP=14.2,BA=5.52,STAT.b=11.0
24/09/2020,16:54:02,TEMP=13.4,BA=5.52,STAT.A,ExtBa=13.60
24/09/2020,16:55:35,TEMP=13.6,BA=5.52,STAT.b=11.0
24/09/2020,17:01:45,TEMP=12.8,BA=5.52,STAT.A,ExtBa=13.50
24/09/2020,17:03:18,TEMP=13.2,BA=5.52,STAT.b=11.0
24/09/2020,17:08:06,TEMP=13.0,BA=5.52,STAT.A,ExtBa=13.40
24/09/2020,17:09:39,TEMP=13.4,BA=5.52,STAT.b=11.0
24/09/2020,17:13:26,TEMP=13.2,BA=5.52,STAT.A,ExtBa=13.30
24/09/2020,17:14:59,TEMP=13.5,BA=5.52,STAT.b=11.0
24/09/2020,17:17:59,TEMP=13.3,BA=5.52,STAT.A,ExtBa=13.20
24/09/2020,17:19:31,TEMP=13.6,BA=5.52,STAT.b=11.0